Time;durP1;ratioP1;P1;durP2;ratioP2;P2;SDS_P1;SDS_P2;PMS_P1;PMS_P2;Temp;Humidity;BMP_temperature;BMP_pressure;BME280_temperature;BME280_humidity;BME280_pressure;Samples;Min_cycle;Max_cycle;Signal;HPM_P1;HPM_P2
2023/12/09 00:01:26;;;;;;;60.38;16.92;;;;;;;;;;4116304;28;20484;-79
2023/12/09 00:03:27;;;;;;;61.45;16.48;;;;;;;;;;4116262;28;20400;-79
2023/12/09 00:05:28;;;;;;;94.97;19.38;;;;;;;;;;4115737;28;20050;-78
2023/12/09 00:07:29;;;;;;;62.53;16.40;;;;;;;;;;4115984;28;20058;-78
2023/12/09 00:09:30;;;;;;;86.28;19.10;;;;;;;;;;4116065;28;20483;-78
2023/12/09 00:11:31;;;;;;;63.50;16.42;;;;;;;;;;4115961;28;20506;-78
2023/12/09 00:13:32;;;;;;;69.75;18.15;;;;;;;;;;4115528;28;20154;-78
2023/12/09 00:15:34;;;;;;;78.78;17.60;;;;;;;;;;4115494;28;20057;-79
2023/12/09 00:17:36;;;;;;;71.90;17.98;;;;;;;;;;4116000;28;20924;-78
2023/12/09 00:19:37;;;;;;;81.82;19.25;;;;;;;;;;4115976;28;20473;-78
2023/12/09 00:21:38;;;;;;;60.80;17.13;;;;;;;;;;4115607;28;20550;-78
2023/12/09 00:23:39;;;;;;;72.15;16.92;;;;;;;;;;4114116;28;20503;-78
2023/12/09 00:25:40;;;;;;;58.30;17.85;;;;;;;;;;4115872;28;20051;-80
2023/12/09 00:27:41;;;;;;;79.32;18.98;;;;;;;;;;4115835;28;20042;-80
2023/12/09 00:29:42;;;;;;;84.05;18.90;;;;;;;;;;4115768;28;20518;-80
2023/12/09 00:31:43;;;;;;;78.10;19.42;;;;;;;;;;4115614;28;20105;-80
2023/12/09 00:33:45;;;;;;;76.15;17.00;;;;;;;;;;4115507;28;20343;-80
2023/12/09 00:35:46;;;;;;;78.82;16.05;;;;;;;;;;4115660;28;20487;-80
2023/12/09 00:37:48;;;;;;;73.45;16.98;;;;;;;;;;4115667;28;20122;-80
2023/12/09 00:39:49;;;;;;;64.15;17.30;;;;;;;;;;4115756;28;20051;-80
2023/12/09 00:41:50;;;;;;;67.22;17.27;;;;;;;;;;4115759;28;20511;-80
2023/12/09 00:43:51;;;;;;;74.72;19.00;;;;;;;;;;4115772;28;20555;-80
2023/12/09 00:45:52;;;;;;;66.68;15.85;;;;;;;;;;4115478;28;20051;-80
2023/12/09 00:47:53;;;;;;;64.93;15.45;;;;;;;;;;4117496;28;20491;-80
2023/12/09 00:49:54;;;;;;;72.05;16.77;;;;;;;;;;4118765;28;20050;-80
2023/12/09 00:51:56;;;;;;;76.88;17.00;;;;;;;;;;4118483;28;20042;-80
2023/12/09 00:53:57;;;;;;;58.83;15.13;;;;;;;;;;4118537;28;20170;-80
2023/12/09 00:56:00;;;;;;;64.72;17.30;;;;;;;;;;4118555;28;20046;-80
2023/12/09 00:58:01;;;;;;;60.72;18.48;;;;;;;;;;4118420;28;20055;-80
2023/12/09 01:00:04;;;;;;;66.30;17.42;;;;;;;;;;4117958;28;20039;-80
2023/12/09 01:02:05;;;;;;;65.50;15.82;;;;;;;;;;4118268;28;20075;-80
2023/12/09 01:04:06;;;;;;;53.28;14.65;;;;;;;;;;4118144;28;20492;-80
2023/12/09 01:06:07;;;;;;;59.67;16.15;;;;;;;;;;4117978;28;20043;-80
2023/12/09 01:08:09;;;;;;;57.47;15.55;;;;;;;;;;4118288;28;20431;-80
2023/12/09 01:10:10;;;;;;;66.90;16.70;;;;;;;;;;4117025;28;20055;-80
2023/12/09 01:12:11;;;;;;;53.20;14.30;;;;;;;;;;4118139;28;20043;-80
2023/12/09 01:14:12;;;;;;;58.55;15.60;;;;;;;;;;4116579;28;20522;-80
2023/12/09 01:16:13;;;;;;;55.92;16.05;;;;;;;;;;4117649;28;20047;-80
2023/12/09 01:18:14;;;;;;;77.85;17.92;;;;;;;;;;4117982;28;20502;-80
2023/12/09 01:20:15;;;;;;;76.78;16.35;;;;;;;;;;4117801;28;20050;-80
2023/12/09 01:22:16;;;;;;;54.95;15.15;;;;;;;;;;4117853;28;20047;-80
2023/12/09 01:24:18;;;;;;;59.42;15.65;;;;;;;;;;4117193;28;20132;-80
2023/12/09 01:26:19;;;;;;;44.22;14.88;;;;;;;;;;4118179;28;20039;-80
2023/12/09 01:28:20;;;;;;;61.55;15.07;;;;;;;;;;4117841;28;20511;-80
2023/12/09 01:30:21;;;;;;;54.00;15.88;;;;;;;;;;4117898;28;20395;-80
2023/12/09 01:32:22;;;;;;;55.10;14.75;;;;;;;;;;4117592;28;20043;-80
2023/12/09 01:34:23;;;;;;;77.65;18.73;;;;;;;;;;4118018;28;20047;-80
2023/12/09 01:36:25;;;;;;;56.78;15.05;;;;;;;;;;4117505;28;20506;-80
2023/12/09 01:38:26;;;;;;;66.72;15.18;;;;;;;;;;4117837;28;20081;-80
2023/12/09 01:40:27;;;;;;;49.60;14.73;;;;;;;;;;4117782;28;20535;-80
2023/12/09 01:42:28;;;;;;;62.50;16.10;;;;;;;;;;4116340;28;20051;-80
2023/12/09 01:44:29;;;;;;;52.80;13.05;;;;;;;;;;4117896;28;20050;-80
2023/12/09 01:46:31;;;;;;;57.30;15.95;;;;;;;;;;4117904;28;20051;-80
2023/12/09 01:48:32;;;;;;;54.75;15.57;;;;;;;;;;4117409;28;20046;-80
2023/12/09 01:50:35;;;;;;;64.90;16.25;;;;;;;;;;4117409;28;20043;-80
2023/12/09 01:52:36;;;;;;;58.80;15.98;;;;;;;;;;4117523;28;20404;-80
2023/12/09 01:54:37;;;;;;;58.38;17.13;;;;;;;;;;4117761;28;20185;-80
2023/12/09 01:56:39;;;;;;;62.22;15.02;;;;;;;;;;4117709;28;20051;-80
2023/12/09 01:58:40;;;;;;;58.17;15.30;;;;;;;;;;4116534;28;20409;-80
2023/12/09 02:00:42;;;;;;;50.10;15.23;;;;;;;;;;4117587;28;20046;-80
2023/12/09 02:02:44;;;;;;;58.13;16.00;;;;;;;;;;4117333;28;20109;-80
2023/12/09 02:04:45;;;;;;;45.97;14.82;;;;;;;;;;4117646;28;20411;-80
2023/12/09 02:06:46;;;;;;;60.40;13.98;;;;;;;;;;4117313;28;20079;-80
2023/12/09 02:08:48;;;;;;;49.53;13.95;;;;;;;;;;4117369;28;20101;-80
2023/12/09 02:10:55;;;;;;;63.10;15.48;;;;;;;;;;4117223;28;20138;-80
2023/12/09 02:12:59;;;;;;;53.35;14.23;;;;;;;;;;4117267;28;20404;-80
2023/12/09 02:15:32;;;;;;;54.67;15.32;;;;;;;;;;4116661;28;20062;-80
2023/12/09 02:17:36;;;;;;;49.95;15.75;;;;;;;;;;4105087;28;20455;-80
2023/12/09 02:19:39;;;;;;;44.25;14.48;;;;;;;;;;4117219;28;20113;-80
2023/12/09 02:21:59;;;;;;;47.38;14.52;;;;;;;;;;4117128;28;20043;-80
2023/12/09 02:24:00;;;;;;;47.72;14.93;;;;;;;;;;4116797;28;20047;-80
2023/12/09 02:26:17;;;;;;;48.72;14.27;;;;;;;;;;4116540;28;20545;-80
2023/12/09 02:28:20;;;;;;;48.10;13.43;;;;;;;;;;4116974;28;20053;-80
2023/12/09 02:30:40;;;;;;;44.08;13.15;;;;;;;;;;4117013;28;20407;-80
2023/12/09 02:32:41;;;;;;;45.83;14.52;;;;;;;;;;4116651;28;20039;-80
2023/12/09 02:34:43;;;;;;;52.38;13.60;;;;;;;;;;4116981;28;20132;-80
2023/12/09 02:36:46;;;;;;;41.50;12.55;;;;;;;;;;4117089;28;20046;-80
2023/12/09 02:38:48;;;;;;;42.53;10.32;;;;;;;;;;4117028;28;20053;-80
2023/12/09 02:40:50;;;;;;;51.85;13.38;;;;;;;;;;4116894;28;20062;-80
2023/12/09 02:42:51;;;;;;;46.17;12.75;;;;;;;;;;4116988;28;20070;-80
2023/12/09 02:44:52;;;;;;;50.13;13.25;;;;;;;;;;4116600;28;20129;-80
2023/12/09 02:46:56;;;;;;;43.45;12.40;;;;;;;;;;4115749;28;20054;-80
2023/12/09 02:49:00;;;;;;;42.42;13.25;;;;;;;;;;4116801;28;20102;-80
2023/12/09 02:51:01;;;;;;;41.00;12.88;;;;;;;;;;4116843;28;20039;-80
2023/12/09 02:53:02;;;;;;;44.92;12.48;;;;;;;;;;4116495;28;20049;-80
2023/12/09 02:55:04;;;;;;;51.17;12.57;;;;;;;;;;4116779;28;20483;-80
2023/12/09 02:57:05;;;;;;;47.63;11.23;;;;;;;;;;4116601;28;20134;-80
2023/12/09 02:59:07;;;;;;;52.00;11.88;;;;;;;;;;4116431;28;20051;-80
2023/12/09 03:01:08;;;;;;;53.20;13.10;;;;;;;;;;4116657;28;20452;-80
2023/12/09 03:03:09;;;;;;;53.03;13.68;;;;;;;;;;4116526;28;20051;-80
2023/12/09 03:05:10;;;;;;;50.92;12.23;;;;;;;;;;4116869;28;20101;-80
2023/12/09 03:07:13;;;;;;;46.33;13.77;;;;;;;;;;4116525;28;20900;-80
2023/12/09 03:09:14;;;;;;;35.28;11.18;;;;;;;;;;4116109;28;20527;-80
2023/12/09 03:11:15;;;;;;;45.80;12.25;;;;;;;;;;4116035;28;20053;-80
2023/12/09 03:13:16;;;;;;;52.80;11.35;;;;;;;;;;4115019;28;20051;-80
2023/12/09 03:15:17;;;;;;;43.10;12.57;;;;;;;;;;4116298;28;20050;-80
2023/12/09 03:17:19;;;;;;;51.28;12.05;;;;;;;;;;4116384;28;20133;-80
2023/12/09 03:19:20;;;;;;;43.85;12.93;;;;;;;;;;4115226;28;20089;-80
2023/12/09 03:21:21;;;;;;;40.70;11.48;;;;;;;;;;4116076;28;20046;-80
2023/12/09 03:23:22;;;;;;;38.17;11.63;;;;;;;;;;4116369;28;20050;-80
2023/12/09 03:25:23;;;;;;;42.47;11.15;;;;;;;;;;4116174;28;20082;-80
2023/12/09 03:27:24;;;;;;;44.97;11.80;;;;;;;;;;4115027;28;20046;-80
2023/12/09 03:29:25;;;;;;;37.83;12.38;;;;;;;;;;4116424;28;20050;-80
2023/12/09 03:31:26;;;;;;;39.63;12.93;;;;;;;;;;4116123;28;20043;-80
2023/12/09 03:33:28;;;;;;;33.13;10.13;;;;;;;;;;4115995;28;20506;-80
2023/12/09 03:35:29;;;;;;;37.35;10.77;;;;;;;;;;4116186;28;20047;-80
2023/12/09 03:37:30;;;;;;;45.63;11.13;;;;;;;;;;4115867;28;20062;-80
2023/12/09 03:39:32;;;;;;;35.67;9.38;;;;;;;;;;4116096;28;20077;-80
2023/12/09 03:41:34;;;;;;;29.08;10.73;;;;;;;;;;4116064;28;20125;-80
2023/12/09 03:43:35;;;;;;;43.63;10.98;;;;;;;;;;4116191;28;20054;-80
2023/12/09 03:45:36;;;;;;;46.03;11.27;;;;;;;;;;4115802;28;20089;-80
2023/12/09 03:47:37;;;;;;;37.72;10.05;;;;;;;;;;4115903;28;20073;-80
2023/12/09 03:49:38;;;;;;;43.80;11.43;;;;;;;;;;4116076;28;20492;-80
2023/12/09 03:51:39;;;;;;;46.70;10.40;;;;;;;;;;4116009;28;20487;-80
2023/12/09 03:53:43;;;;;;;37.45;10.43;;;;;;;;;;4116161;28;20062;-80
2023/12/09 03:55:44;;;;;;;45.83;11.50;;;;;;;;;;4116208;28;20046;-80
2023/12/09 03:57:46;;;;;;;43.05;11.88;;;;;;;;;;4116207;28;20043;-80
2023/12/09 03:59:47;;;;;;;54.60;11.07;;;;;;;;;;4115744;28;20396;-80
2023/12/09 04:01:49;;;;;;;38.78;9.73;;;;;;;;;;4116021;28;20042;-79
2023/12/09 04:03:51;;;;;;;33.35;10.60;;;;;;;;;;4115774;28;20047;-80
2023/12/09 04:05:52;;;;;;;42.33;10.07;;;;;;;;;;4114483;28;20130;-80
2023/12/09 04:07:53;;;;;;;37.42;10.55;;;;;;;;;;4115769;28;20047;-80
2023/12/09 04:09:55;;;;;;;45.03;12.18;;;;;;;;;;4115900;28;20488;-80
2023/12/09 04:11:56;;;;;;;28.10;9.70;;;;;;;;;;4115772;28;20058;-80
2023/12/09 04:13:57;;;;;;;27.50;10.23;;;;;;;;;;4115656;28;20053;-80
2023/12/09 04:15:58;;;;;;;33.63;10.95;;;;;;;;;;4115762;28;20086;-80
2023/12/09 04:17:59;;;;;;;31.05;9.50;;;;;;;;;;4115966;28;20042;-80
2023/12/09 04:20:00;;;;;;;28.00;9.60;;;;;;;;;;4115998;28;20068;-80
2023/12/09 04:22:01;;;;;;;32.47;10.25;;;;;;;;;;4116120;28;20534;-80
2023/12/09 04:24:03;;;;;;;41.10;11.15;;;;;;;;;;4118934;28;20042;-80
2023/12/09 04:26:04;;;;;;;35.47;9.85;;;;;;;;;;4119070;28;20443;-80
2023/12/09 04:28:05;;;;;;;31.73;9.20;;;;;;;;;;4117887;28;20047;-80
2023/12/09 04:30:07;;;;;;;36.38;9.57;;;;;;;;;;4118918;28;20046;-80
2023/12/09 04:32:08;;;;;;;33.10;9.52;;;;;;;;;;4118443;28;20050;-80
2023/12/09 04:34:09;;;;;;;27.55;10.23;;;;;;;;;;4118659;28;20074;-80
2023/12/09 04:36:11;;;;;;;38.20;9.70;;;;;;;;;;4118356;28;20182;-80
2023/12/09 04:38:12;;;;;;;38.90;10.48;;;;;;;;;;4118757;28;20128;-80
2023/12/09 04:40:13;;;;;;;30.70;11.23;;;;;;;;;;4133647;28;20057;-80
2023/12/09 04:42:14;;;;;;;33.65;9.85;;;;;;;;;;4118689;28;20484;-80
2023/12/09 04:44:16;;;;;;;33.50;9.55;;;;;;;;;;4118648;28;20109;-80
2023/12/09 04:46:17;;;;;;;32.88;9.63;;;;;;;;;;4118649;28;20121;-79
2023/12/09 04:48:18;;;;;;;38.22;10.35;;;;;;;;;;4118375;28;20126;-79
2023/12/09 04:50:19;;;;;;;33.95;9.13;;;;;;;;;;4121848;28;20057;-80
2023/12/09 04:52:20;;;;;;;41.13;9.40;;;;;;;;;;4125449;28;20483;-80
2023/12/09 04:54:21;;;;;;;26.38;9.38;;;;;;;;;;4120863;28;20070;-80
2023/12/09 04:56:22;;;;;;;31.92;9.25;;;;;;;;;;4120101;28;20049;-80
2023/12/09 04:58:24;;;;;;;33.33;9.88;;;;;;;;;;4120617;28;20130;-80
2023/12/09 05:00:26;;;;;;;32.28;9.52;;;;;;;;;;4120290;28;20051;-80
2023/12/09 05:02:28;;;;;;;34.05;8.88;;;;;;;;;;4120076;28;20050;-80
2023/12/09 05:04:48;;;;;;;27.25;8.70;;;;;;;;;;4118697;28;20523;-80
2023/12/09 05:06:49;;;;;;;33.28;9.25;;;;;;;;;;4118739;28;20050;-80
2023/12/09 05:08:50;;;;;;;34.53;10.45;;;;;;;;;;4118156;28;20395;-79
2023/12/09 05:10:52;;;;;;;24.73;9.55;;;;;;;;;;4118456;28;20070;-79
2023/12/09 05:12:53;;;;;;;35.08;8.85;;;;;;;;;;4118337;28;20403;-79
2023/12/09 05:14:54;;;;;;;33.85;10.07;;;;;;;;;;4118216;28;20504;-79
2023/12/09 05:16:56;;;;;;;28.27;9.10;;;;;;;;;;4118186;28;20055;-79
2023/12/09 05:18:57;;;;;;;31.80;8.38;;;;;;;;;;4118310;28;20049;-79
2023/12/09 05:20:58;;;;;;;32.10;9.98;;;;;;;;;;4116823;28;20705;-79
2023/12/09 05:22:59;;;;;;;33.38;9.52;;;;;;;;;;4118511;28;20062;-79
2023/12/09 05:25:00;;;;;;;31.58;10.32;;;;;;;;;;4118168;28;20488;-79
2023/12/09 05:27:01;;;;;;;23.40;8.43;;;;;;;;;;4118138;28;20049;-79
2023/12/09 05:29:03;;;;;;;33.47;9.32;;;;;;;;;;4117797;28;20415;-79
2023/12/09 05:31:04;;;;;;;29.58;9.88;;;;;;;;;;4117798;28;20055;-79
2023/12/09 05:33:05;;;;;;;33.88;7.80;;;;;;;;;;4117745;28;20081;-79
2023/12/09 05:35:07;;;;;;;39.45;8.68;;;;;;;;;;4118096;28;20484;-79
2023/12/09 05:37:08;;;;;;;34.38;9.73;;;;;;;;;;4117602;28;20128;-79
2023/12/09 05:39:09;;;;;;;30.30;8.30;;;;;;;;;;4117894;28;20547;-79
2023/12/09 05:41:10;;;;;;;38.22;8.77;;;;;;;;;;4116589;28;20131;-79
2023/12/09 05:43:11;;;;;;;20.75;7.70;;;;;;;;;;4117638;28;20125;-79
2023/12/09 05:45:12;;;;;;;39.28;8.18;;;;;;;;;;4117749;28;20551;-79
2023/12/09 05:47:13;;;;;;;32.25;9.20;;;;;;;;;;4117891;28;20054;-79
2023/12/09 05:49:15;;;;;;;30.70;8.15;;;;;;;;;;4117817;28;20101;-79
2023/12/09 05:51:16;;;;;;;29.60;9.50;;;;;;;;;;4117636;28;20535;-79
2023/12/09 05:53:17;;;;;;;27.90;8.43;;;;;;;;;;4117389;28;20043;-79
2023/12/09 05:55:18;;;;;;;29.13;8.35;;;;;;;;;;4117650;28;20058;-79
2023/12/09 05:57:19;;;;;;;39.60;7.93;;;;;;;;;;4117544;28;20480;-79
2023/12/09 05:59:20;;;;;;;39.05;10.15;;;;;;;;;;4117578;28;20062;-79
2023/12/09 06:01:21;;;;;;;37.13;9.25;;;;;;;;;;4116369;28;20484;-79
2023/12/09 06:03:22;;;;;;;31.70;8.38;;;;;;;;;;4117668;28;20062;-79
2023/12/09 06:05:23;;;;;;;26.98;8.75;;;;;;;;;;4117464;28;20546;-79
2023/12/09 06:07:24;;;;;;;27.15;6.90;;;;;;;;;;4115865;28;20129;-79
2023/12/09 06:09:26;;;;;;;28.23;8.13;;;;;;;;;;4117543;28;20046;-79
2023/12/09 06:11:27;;;;;;;35.58;10.68;;;;;;;;;;4117307;28;20479;-79
2023/12/09 06:13:28;;;;;;;27.85;8.40;;;;;;;;;;4117158;28;20066;-79
2023/12/09 06:15:29;;;;;;;30.75;7.93;;;;;;;;;;4116824;28;20065;-79
2023/12/09 06:17:30;;;;;;;35.50;8.63;;;;;;;;;;4115914;28;20046;-79
2023/12/09 06:19:32;;;;;;;34.95;8.25;;;;;;;;;;4117128;28;20558;-79
2023/12/09 06:21:33;;;;;;;28.30;7.53;;;;;;;;;;4116006;28;20415;-79
2023/12/09 06:23:36;;;;;;;31.80;8.13;;;;;;;;;;4117281;28;20539;-79
2023/12/09 06:25:37;;;;;;;31.83;7.32;;;;;;;;;;4117351;28;20042;-79
2023/12/09 06:27:38;;;;;;;32.60;8.18;;;;;;;;;;4117432;28;20381;-79
2023/12/09 06:29:39;;;;;;;27.83;8.43;;;;;;;;;;4117353;28;20047;-79
2023/12/09 06:31:41;;;;;;;40.63;6.97;;;;;;;;;;4117143;28;20070;-79
2023/12/09 06:33:43;;;;;;;26.60;7.57;;;;;;;;;;4117155;28;20081;-79
2023/12/09 06:35:44;;;;;;;30.58;8.55;;;;;;;;;;4116996;28;20468;-79
2023/12/09 06:37:45;;;;;;;26.23;6.50;;;;;;;;;;4117092;28;20460;-79
2023/12/09 06:39:46;;;;;;;32.00;8.07;;;;;;;;;;4117029;28;20117;-79
2023/12/09 06:41:48;;;;;;;22.63;7.13;;;;;;;;;;4115473;28;20054;-79
2023/12/09 06:43:49;;;;;;;35.92;6.53;;;;;;;;;;4116311;28;20053;-79
2023/12/09 06:45:50;;;;;;;16.75;6.40;;;;;;;;;;4116396;28;20047;-79
2023/12/09 06:47:53;;;;;;;18.42;6.65;;;;;;;;;;4116874;28;20042;-79
2023/12/09 06:49:54;;;;;;;22.10;6.00;;;;;;;;;;4116830;28;20118;-79
2023/12/09 06:51:55;;;;;;;26.60;7.10;;;;;;;;;;4116775;28;20043;-79
2023/12/09 06:53:56;;;;;;;32.17;7.03;;;;;;;;;;4116376;28;20488;-79
2023/12/09 06:55:57;;;;;;;23.83;5.40;;;;;;;;;;4119039;28;20038;-79
2023/12/09 06:58:00;;;;;;;35.55;5.97;;;;;;;;;;4116661;28;20579;-79
2023/12/09 07:00:01;;;;;;;24.13;6.57;;;;;;;;;;4131244;28;20042;-78
2023/12/09 07:02:02;;;;;;;28.75;6.32;;;;;;;;;;4116487;28;20053;-79
2023/12/09 07:04:03;;;;;;;23.20;6.05;;;;;;;;;;4116615;28;20175;-78
2023/12/09 07:06:04;;;;;;;30.33;7.13;;;;;;;;;;4116757;28;20054;-78
2023/12/09 07:08:05;;;;;;;22.02;6.80;;;;;;;;;;4116657;28;20053;-78
2023/12/09 07:10:07;;;;;;;22.58;5.13;;;;;;;;;;4116516;28;20515;-79
2023/12/09 07:12:09;;;;;;;21.80;7.18;;;;;;;;;;4116497;28;20046;-79
2023/12/09 07:14:10;;;;;;;19.50;7.07;;;;;;;;;;4118815;28;20063;-79
2023/12/09 07:16:13;;;;;;;20.92;6.45;;;;;;;;;;4133776;28;20066;-78
2023/12/09 07:18:14;;;;;;;24.50;6.47;;;;;;;;;;4116515;28;20143;-79
2023/12/09 07:20:15;;;;;;;27.63;6.22;;;;;;;;;;4116478;28;20054;-79
2023/12/09 07:22:16;;;;;;;24.67;6.97;;;;;;;;;;4116524;28;20043;-79
2023/12/09 07:24:17;;;;;;;19.85;6.63;;;;;;;;;;4116497;28;20474;-79
2023/12/09 07:26:18;;;;;;;21.55;7.40;;;;;;;;;;4116479;28;20047;-79
2023/12/09 07:28:19;;;;;;;23.63;6.57;;;;;;;;;;4114629;28;20070;-79
2023/12/09 07:30:21;;;;;;;18.92;6.68;;;;;;;;;;4116460;28;20038;-79
2023/12/09 07:32:22;;;;;;;23.80;6.28;;;;;;;;;;4116093;28;20039;-79
2023/12/09 07:34:23;;;;;;;26.63;7.55;;;;;;;;;;4115988;28;20046;-79
2023/12/09 07:36:24;;;;;;;24.15;7.07;;;;;;;;;;4116173;28;20086;-79
2023/12/09 07:38:25;;;;;;;23.50;7.47;;;;;;;;;;4130808;28;20859;-79
2023/12/09 07:40:26;;;;;;;25.33;6.55;;;;;;;;;;4116004;28;20419;-79
2023/12/09 07:42:28;;;;;;;28.75;6.50;;;;;;;;;;4115509;28;20086;-79
2023/12/09 07:44:29;;;;;;;19.52;6.10;;;;;;;;;;4116001;28;20097;-79
2023/12/09 07:46:30;;;;;;;30.48;7.28;;;;;;;;;;4115921;28;20042;-79
2023/12/09 07:48:31;;;;;;;23.67;6.63;;;;;;;;;;4116034;28;20126;-79
2023/12/09 07:50:34;;;;;;;32.28;7.47;;;;;;;;;;4116078;28;20051;-79
2023/12/09 07:52:36;;;;;;;28.92;6.47;;;;;;;;;;4115886;28;20456;-79
2023/12/09 07:54:37;;;;;;;14.50;6.15;;;;;;;;;;4115901;28;20508;-79
2023/12/09 07:56:39;;;;;;;19.50;5.63;;;;;;;;;;4116786;28;20046;-78
2023/12/09 07:58:40;;;;;;;27.95;6.82;;;;;;;;;;4119671;28;20051;-78
2023/12/09 08:00:41;;;;;;;22.48;7.15;;;;;;;;;;4119148;28;20479;-79
2023/12/09 08:02:42;;;;;;;30.00;7.30;;;;;;;;;;4118603;28;20495;-79
2023/12/09 08:04:43;;;;;;;20.58;6.88;;;;;;;;;;4122728;28;20043;-80
2023/12/09 08:06:44;;;;;;;29.45;7.93;;;;;;;;;;4128103;28;20530;-79
2023/12/09 08:08:46;;;;;;;17.85;6.07;;;;;;;;;;4122493;28;20503;-80
2023/12/09 08:10:47;;;;;;;19.50;5.38;;;;;;;;;;4122730;28;20101;-80
2023/12/09 08:12:49;;;;;;;19.08;6.10;;;;;;;;;;4121928;28;20126;-80
2023/12/09 08:14:50;;;;;;;18.25;6.15;;;;;;;;;;4122460;28;20511;-79
2023/12/09 08:16:52;;;;;;;21.17;6.63;;;;;;;;;;4122220;28;20054;-80
2023/12/09 08:18:54;;;;;;;19.27;5.40;;;;;;;;;;4120563;28;20455;-79
2023/12/09 08:20:55;;;;;;;19.20;5.50;;;;;;;;;;4119787;28;20050;-80
2023/12/09 08:22:57;;;;;;;23.67;5.30;;;;;;;;;;4116819;28;20043;-80
2023/12/09 08:24:58;;;;;;;21.95;6.15;;;;;;;;;;4119901;28;20504;-84
2023/12/09 08:27:00;;;;;;;32.72;7.60;;;;;;;;;;4119441;28;20542;-81
2023/12/09 08:29:03;;;;;;;20.67;6.45;;;;;;;;;;4117254;28;20122;-81
2023/12/09 08:31:06;;;;;;;26.27;6.13;;;;;;;;;;4118852;28;20043;-81
2023/12/09 08:33:07;;;;;;;22.30;6.03;;;;;;;;;;4118411;28;20550;-82
2023/12/09 08:35:10;;;;;;;27.40;7.22;;;;;;;;;;4118914;28;20047;-81
2023/12/09 08:37:11;;;;;;;23.48;5.43;;;;;;;;;;4119331;28;20055;-81
2023/12/09 08:39:12;;;;;;;23.95;5.80;;;;;;;;;;4118760;28;20439;-81
2023/12/09 08:41:14;;;;;;;23.90;6.40;;;;;;;;;;4118786;28;20404;-81
2023/12/09 08:43:16;;;;;;;18.48;6.25;;;;;;;;;;4118620;28;20468;-80
2023/12/09 08:45:17;;;;;;;19.80;5.88;;;;;;;;;;4118531;28;20046;-81
2023/12/09 08:47:18;;;;;;;21.65;6.60;;;;;;;;;;4119144;28;20051;-81
2023/12/09 08:49:19;;;;;;;21.45;5.40;;;;;;;;;;4116703;28;20507;-81
2023/12/09 08:51:20;;;;;;;20.27;6.20;;;;;;;;;;4118735;28;20046;-81
2023/12/09 08:53:21;;;;;;;22.75;5.82;;;;;;;;;;4117506;28;20043;-81
2023/12/09 08:55:22;;;;;;;19.98;5.57;;;;;;;;;;4118789;28;20451;-81
2023/12/09 08:57:24;;;;;;;17.52;4.90;;;;;;;;;;4118634;28;20129;-81
2023/12/09 08:59:25;;;;;;;16.85;5.07;;;;;;;;;;4117965;28;20046;-81
2023/12/09 09:01:27;;;;;;;20.67;4.70;;;;;;;;;;4118629;28;20053;-81
2023/12/09 09:03:29;;;;;;;21.75;5.78;;;;;;;;;;4118495;28;20057;-81
2023/12/09 09:05:30;;;;;;;27.65;7.80;;;;;;;;;;4118542;28;20042;-81
2023/12/09 09:07:31;;;;;;;23.52;5.13;;;;;;;;;;4118277;28;20522;-81
2023/12/09 09:09:32;;;;;;;19.63;4.05;;;;;;;;;;4117891;28;20050;-81
2023/12/09 09:11:34;;;;;;;15.00;4.80;;;;;;;;;;4118219;28;20125;-81
2023/12/09 09:13:35;;;;;;;22.42;5.00;;;;;;;;;;4118025;28;20066;-81
2023/12/09 09:15:37;;;;;;;20.92;5.20;;;;;;;;;;4118281;28;20050;-81
2023/12/09 09:17:39;;;;;;;16.38;4.03;;;;;;;;;;4118234;28;20058;-82
2023/12/09 09:19:41;;;;;;;20.15;4.95;;;;;;;;;;4118592;28;20559;-81
2023/12/09 09:21:43;;;;;;;19.70;4.22;;;;;;;;;;4118452;28;20465;-81
2023/12/09 09:23:44;;;;;;;21.15;5.65;;;;;;;;;;4118266;28;20061;-81
2023/12/09 09:25:45;;;;;;;19.20;4.47;;;;;;;;;;4118334;28;20046;-81
2023/12/09 09:27:47;;;;;;;16.58;5.05;;;;;;;;;;4117983;28;20042;-81
2023/12/09 09:29:48;;;;;;;22.83;4.25;;;;;;;;;;4118267;28;20050;-81
2023/12/09 09:31:49;;;;;;;18.05;3.80;;;;;;;;;;4117921;28;20044;-81
2023/12/09 09:33:50;;;;;;;15.68;4.22;;;;;;;;;;4118234;28;20101;-81
2023/12/09 09:35:53;;;;;;;17.70;3.88;;;;;;;;;;4118078;28;20050;-81
2023/12/09 09:37:54;;;;;;;17.42;4.32;;;;;;;;;;4118303;28;20153;-81
2023/12/09 09:39:56;;;;;;;12.85;3.45;;;;;;;;;;4117627;28;20072;-81
2023/12/09 09:42:02;;;;;;;14.38;3.75;;;;;;;;;;4117937;28;20051;-81
2023/12/09 09:44:15;;;;;;;15.55;3.67;;;;;;;;;;4117993;28;20490;-81
2023/12/09 09:46:20;;;;;;;21.48;3.97;;;;;;;;;;4117901;28;20045;-81
2023/12/09 09:48:24;;;;;;;16.33;4.53;;;;;;;;;;4117761;28;20082;-81
2023/12/09 09:50:26;;;;;;;18.55;4.40;;;;;;;;;;4117993;28;20050;-81
2023/12/09 09:52:28;;;;;;;15.70;4.28;;;;;;;;;;4117200;28;20047;-81
2023/12/09 09:54:30;;;;;;;15.95;3.65;;;;;;;;;;4117883;28;20054;-81
2023/12/09 09:56:31;;;;;;;7.43;2.65;;;;;;;;;;4117707;28;20126;-81
2023/12/09 09:58:32;;;;;;;17.58;3.92;;;;;;;;;;4117921;28;20055;-81
2023/12/09 10:00:34;;;;;;;12.45;3.42;;;;;;;;;;4117695;28;20047;-81
2023/12/09 10:02:36;;;;;;;18.50;3.60;;;;;;;;;;4117664;28;20559;-81
2023/12/09 10:04:37;;;;;;;16.02;2.70;;;;;;;;;;4117194;28;20058;-81
2023/12/09 10:06:43;;;;;;;12.57;3.25;;;;;;;;;;4117703;28;20043;-81
2023/12/09 10:08:44;;;;;;;12.57;2.85;;;;;;;;;;4117549;28;20047;-81
2023/12/09 10:10:46;;;;;;;17.52;3.45;;;;;;;;;;4117900;28;20038;-81
2023/12/09 10:12:48;;;;;;;11.13;3.13;;;;;;;;;;4117364;28;20133;-81
2023/12/09 10:14:49;;;;;;;11.73;3.47;;;;;;;;;;4117139;28;20058;-81
2023/12/09 10:16:51;;;;;;;15.70;2.63;;;;;;;;;;4117027;28;20471;-81
2023/12/09 10:18:53;;;;;;;17.52;4.00;;;;;;;;;;4117461;28;20046;-81
2023/12/09 10:20:54;;;;;;;14.82;3.53;;;;;;;;;;4116600;28;20054;-81
2023/12/09 10:22:55;;;;;;;12.60;3.13;;;;;;;;;;4117687;28;20129;-81
2023/12/09 10:24:56;;;;;;;10.98;2.90;;;;;;;;;;4117012;28;20039;-81
2023/12/09 10:26:57;;;;;;;10.85;2.35;;;;;;;;;;4117419;28;20054;-81
2023/12/09 10:28:58;;;;;;;14.20;2.60;;;;;;;;;;4117425;28;20043;-81
2023/12/09 10:31:01;;;;;;;14.45;3.33;;;;;;;;;;4116880;28;20050;-81
2023/12/09 10:33:02;;;;;;;13.70;2.55;;;;;;;;;;4117033;28;20050;-81
2023/12/09 10:35:05;;;;;;;13.27;2.58;;;;;;;;;;4117038;28;20058;-81
2023/12/09 10:37:09;;;;;;;17.80;2.70;;;;;;;;;;4117149;28;20045;-81
2023/12/09 10:39:10;;;;;;;13.07;3.00;;;;;;;;;;4117127;28;20098;-81
2023/12/09 10:41:15;;;;;;;11.18;2.22;;;;;;;;;;4116567;28;20047;-81
2023/12/09 10:43:16;;;;;;;10.43;2.33;;;;;;;;;;4117190;28;20563;-81
2023/12/09 10:45:17;;;;;;;11.65;2.72;;;;;;;;;;4117007;28;20038;-81
2023/12/09 10:47:18;;;;;;;13.50;2.67;;;;;;;;;;4116941;28;20389;-81
2023/12/09 10:49:19;;;;;;;10.25;2.30;;;;;;;;;;4116834;28;20043;-81
2023/12/09 10:51:20;;;;;;;11.35;2.58;;;;;;;;;;4116784;28;20051;-81
2023/12/09 10:53:21;;;;;;;19.65;3.60;;;;;;;;;;4116902;28;20042;-81
2023/12/09 10:55:23;;;;;;;7.47;2.05;;;;;;;;;;4116275;28;20097;-81
2023/12/09 10:57:25;;;;;;;16.00;2.70;;;;;;;;;;4116849;28;20050;-81
2023/12/09 10:59:28;;;;;;;19.60;3.20;;;;;;;;;;4116681;28;20046;-81
2023/12/09 11:01:30;;;;;;;12.52;3.20;;;;;;;;;;4116960;28;20043;-81
2023/12/09 11:03:32;;;;;;;8.57;2.35;;;;;;;;;;4116859;28;20488;-81
2023/12/09 11:05:35;;;;;;;13.45;2.38;;;;;;;;;;4116448;28;20082;-81
2023/12/09 11:07:37;;;;;;;9.98;2.15;;;;;;;;;;4116086;28;20113;-81
2023/12/09 11:09:39;;;;;;;17.33;2.60;;;;;;;;;;4116510;28;20507;-81
2023/12/09 11:11:41;;;;;;;10.43;2.80;;;;;;;;;;4116579;28;20101;-81
2023/12/09 11:13:46;;;;;;;14.25;3.25;;;;;;;;;;4116326;28;20046;-82
2023/12/09 11:15:47;;;;;;;9.95;2.45;;;;;;;;;;4116384;28;20047;-81
2023/12/09 11:17:48;;;;;;;10.30;2.28;;;;;;;;;;4116669;28;20057;-81
2023/12/09 11:19:50;;;;;;;16.77;2.00;;;;;;;;;;4116301;28;20078;-81
2023/12/09 11:21:51;;;;;;;8.98;2.40;;;;;;;;;;4116454;28;20055;-81
2023/12/09 11:23:57;;;;;;;9.60;1.48;;;;;;;;;;4116453;28;20054;-81
2023/12/09 11:25:58;;;;;;;10.63;2.40;;;;;;;;;;4116358;28;20078;-81
2023/12/09 11:27:59;;;;;;;10.45;2.47;;;;;;;;;;4116322;28;20418;-81
2023/12/09 11:30:00;;;;;;;9.57;1.73;;;;;;;;;;4116563;28;20046;-81
2023/12/09 11:32:07;;;;;;;9.20;3.13;;;;;;;;;;4114382;28;20106;-81
2023/12/09 11:34:12;;;;;;;9.68;3.00;;;;;;;;;;4116239;28;20089;-81
2023/12/09 11:36:13;;;;;;;9.35;2.40;;;;;;;;;;4116042;28;20108;-82
2023/12/09 11:38:15;;;;;;;7.57;1.75;;;;;;;;;;4116360;28;20586;-81
2023/12/09 11:40:16;;;;;;;9.68;2.53;;;;;;;;;;4115114;28;20173;-82
2023/12/09 11:42:19;;;;;;;8.93;1.80;;;;;;;;;;4116321;28;20057;-81
2023/12/09 11:44:22;;;;;;;7.65;1.85;;;;;;;;;;4115995;28;20074;-81
2023/12/09 11:46:24;;;;;;;8.77;1.92;;;;;;;;;;4116503;28;20057;-81
2023/12/09 11:48:26;;;;;;;8.25;1.92;;;;;;;;;;4115989;28;20054;-81
2023/12/09 11:50:29;;;;;;;7.25;2.10;;;;;;;;;;4115815;28;20294;-81
2023/12/09 11:52:30;;;;;;;7.82;2.85;;;;;;;;;;4115516;28;20484;-81
2023/12/09 11:54:31;;;;;;;13.60;2.67;;;;;;;;;;4115959;28;20147;-81
2023/12/09 11:56:32;;;;;;;10.05;2.63;;;;;;;;;;4114977;28;20047;-81